Big Stone City, SD (57216)

7:01 AM CST on February 07, 2016 (GMT -0600)
Ortonville Municipal-Martinson | | Change Station
CLOSE
Current Station
Airport
Location: Ortonville,
Elevation: 1099 ft
Nearby Weather Stations
Active Advisory: Blizzard Warning

Elev 1099 ft 45.31 °N, 96.42 °W | Updated 8 minutes ago

Clear
Clear
36 °F
Feels Like 25 °F
N
18
Wind Variable Wind from West
Gusts 26 mph

Today
High -- | Low -- °F
--% Chance of Precip.
Yesterday
High -- | Low -- °F
Precip. -- in
Pressure 29.71 in
Visibility 10.0 miles
Clouds Clear
Windchill 25 °F
Dew Point 25 °F
Humidity 65%
Rainfall 0.00 in
Snow Depth Not available.
7:39 AM 5:41 PM
Waning Crescent, 2% visible
METAR KVVV 071253Z AUTO 28016G23KT 10SM CLR 02/M04 A2971 RMK AO2
Pressure 29.71 in
Visibility 10.0 miles
Clouds Clear
Windchill 25 °F
Dew Point 25 °F
Humidity 65%
Rainfall 0.00 in
Snow Depth Not available.
7:39 AM 5:41 PM
Waning Crescent, 2% visible
METAR KVVV 071253Z AUTO 28016G23KT 10SM CLR 02/M04 A2971 RMK AO2

10-Day Weather Forecast

Almanac

Astronomy

Feb. 07, 2016 Rise Set
Actual Time
Civil Twilight
Nautical Twilight
Astronomical Twilight
Moon
Length of Visible Light
Length of Day
Tomorrow will be .
, % of the Moon is Illuminated

Today's Extremes

State Highs State Lows

Community

WunderPhotos

Upload Photos

1,891,189 photos uploaded!

WunderBlog® & News

Nearby

Air Quality

  Air Quality AQ Index Pollutant
Not available.

Snow Depth

Station Depth Elevation

Earthquake Activity

City Distance Mag. Time & Date
Minimum magnitude displayed is 2.5.

Coastal Water Temperatures

Place Temperature

Stations

Nearby Weather Stations

Station Location Temp. Windchill Dew Point Humidity Wind Precip. Elev Updated Type
                   

Watches & Warnings

Blizzard Warning
Issued: 4:05 AM CST Feb. 7, 2016 – National Weather Service

... Blizzard Warning remains in effect from 9 am this morning to
6 am CST Monday...

* expect periodic blizzard conditions later today and persisting
into this evening.

* Winds gusting as high as 55 mph combined with areas of snow will
cause low visibility at times.

* Total snow accumulations of 1 to 2 inches are expected.

* Travel may be very difficult to impossible at times.

Precautionary/preparedness actions...

A Blizzard Warning means severe winter weather conditions are
expected or occurring. Falling and blowing snow with strong winds
and poor visibilities are likely. This will lead to whiteout
conditions... making travel extremely dangerous. Do not travel. If
you must travel... have a winter survival kit with you. If you get
stranded... stay with your vehicle. The latest Road conditions for
the state you are calling from can be obtained by calling 5 1 1.

Tmt